• Join FlightAware (Why Join?)
  • Login
  • US Flag 
09:06PM EDT


 

Airport Tracker/Info


-or-


 

Live Flight TrackerFlight Track Log ✈ GJS3710 ✈ 23-May-2013 ✈ KORD - KALB

Flight Track Log - Related Links

Times and Time Zones

All times are in EDT time to prevent confusion due to time zone crossing. See the GJS3710 flight status page for this flight to view local times or setup timezone preferences in your user account.

Time Position Orientation Groundspeed Altitude Reporting Facility
EDT Latitude Longitude Course Direction KTS MPH feet Rate Location/Type
10:31PM 42.0000 -87.9500 20° North 156 180 1,800  Level Chicago TRACON
10:32PM 42.0500 -87.9333 14° North 183 211 4,300 1,200 Climbing Chicago TRACON
10:34PM 42.1356 -87.8994 16° North 224 258 5,100 1,260 Climbing Chicago Center
10:35PM 42.1997 -87.8714 18° North 241 277 7,700 2,820 Climbing Chicago Center
10:36PM 42.6598 -87.6785 20° North  Level FlightAware Approximate
10:36PM 42.2772 -87.8353 19° North 248 285 11,000  Level Chicago Center
10:37PM 42.3506 -87.8375 359° North 256 295 13,500 1,560 Climbing Chicago Center
10:38PM 42.4278 -87.8114 14° North 294 338 14,300 780 Climbing Chicago Center
10:39PM 42.5192 -87.7700 18° North 343 395 15,100 960 Climbing Chicago Center
10:40PM 42.6172 -87.7275 18° North 364 419 16,400 1,260 Climbing Chicago Center
10:41PM 42.7175 -87.6819 18° North 376 433 17,800 1,260 Climbing Chicago Center
10:42PM 42.8111 -87.6203 26° Northeast 381 438 19,100 1,200 Climbing Chicago Center
10:43PM 42.8483 -87.4406 74° East 425 489 20,300 1,080 Climbing Chicago Center
10:44PM 42.8642 -87.2789 82° East 438 504 21,400 960 Climbing Chicago Center
10:45PM 42.8825 -87.1131 81° East 442 509 22,300 840 Climbing Chicago Center
10:46PM 42.9000 -86.9428 82° East 452 520 23,200 780 Climbing Chicago Center
10:47PM 42.9183 -86.7706 82° East 460 529 24,000 660 Climbing Chicago Center
10:48PM 42.9358 -86.5978 82° East 462 532 24,600 480 Climbing Chicago Center
10:49PM 42.9533 -86.4194 82° East 474 545 25,100 480 Climbing Chicago Center
10:50PM 42.9747 -86.2033 82° East 480 552 25,700 660 Climbing Chicago Center
10:51PM 42.9914 -86.0192 83° East 486 559 26,500 780 Climbing Chicago Center
10:52PM 43.0083 -85.8528 82° East 483 556 27,300 720 Climbing Chicago Center
10:53PM 43.0247 -85.6714 83° East 485 558 28,000 780 Climbing Chicago Center
10:54PM 43.0417 -85.4889 83° East 486 559 28,900 840 Climbing Chicago Center
10:55PM 43.0614 -85.2733 83° East 479 551 29,800 660 Climbing Chicago Center
10:56PM 43.0772 -85.0911 83° East 482 555 30,300 480 Climbing Chicago Center
10:57PM 43.0928 -84.9056 83° East 491 565 30,800 480 Climbing Chicago Center
10:58PM 43.0958 -84.7172 89° East 496 571 31,300 480 Climbing Chicago Center
10:59PM 43.1003 -84.5278 88° East 497 572 31,800 480 Climbing Chicago Center
11:00PM 43.1025 -84.3369 89° East 502 578 32,300 480 Climbing Chicago Center
11:01PM 43.1044 -84.1464 89° East 502 578 32,800 540 Climbing Chicago Center
11:01PM 43.1036 -84.0725 91° East 496 571 33,000 540 Climbing Cleveland Center
11:02PM 43.1050 -83.8792 89° East 496 571 33,500 480 Climbing Cleveland Center
11:03PM 43.1061 -83.6914 89° East 491 565 34,000 480 Climbing Cleveland Center
11:04PM 43.1069 -83.5008 90° East 496 571 34,500 480 Climbing Cleveland Center
11:05PM 43.1094 -83.3133 89° East 496 571 35,000 240 Climbing Cleveland Center
11:06PM 43.1075 -83.1283 91° East 491 565 35,000  Level Cleveland Center
11:07PM 43.1094 -82.9350 89° East 497 572 35,000  Level Cleveland Center
11:08PM 43.1089 -82.7417 90° East 497 572 35,000  Level Cleveland Center
11:09PM 43.1083 -82.5511 90° East 497 572 35,000  Level Cleveland Center
11:11PM 43.1000 -82.3500 93° East 500 575 35,000  Level Toronto Center
11:12PM 43.1000 -82.1500 90° East 500 575 35,000  Level Toronto Center
11:13PM 43.0833 -81.9667 97° East 500 575 35,000  Level Toronto Center
11:14PM 43.1000 -81.7500 84° East 500 575 35,000  Level Toronto Center
11:15PM 43.1000 -81.5667 90° East 500 575 35,000  Level Toronto Center
11:16PM 43.0833 -81.3667 96° East 510 587 35,000  Level Toronto Center
11:17PM 43.0833 -81.1833 90° East 510 587 35,000  Level Toronto Center
11:18PM 43.0833 -81.0000 90° East 510 587 35,000  Level Toronto Center
11:19PM 43.0833 -80.8000 90° East 510 587 35,000  Level Toronto Center
11:20PM 43.0833 -80.6167 90° East 510 587 35,000  Level Toronto Center
11:21PM 43.0833 -80.4167 90° East 500 575 35,000  Level Toronto Center
11:22PM 43.0667 -80.2333 97° East 500 575 35,000  Level Toronto Center
11:23PM 43.0667 -80.0500 90° East 510 587 35,000  Level Toronto Center
11:24PM 43.0667 -79.8333 90° East 510 587 35,000  Level Toronto Center
11:25PM 43.0500 -79.6500 97° East 510 587 35,000  Level Toronto Center
11:26PM 43.0500 -79.4500 90° East 510 587 35,000  Level Toronto Center
11:27PM 43.0539 -79.1597 89° East 500 575 35,000  Level Cleveland Center
11:28PM 43.0333 -79.0667 107° East 500 575 35,000  Level Toronto Center
11:29PM 43.0333 -78.8833 90° East 500 575 35,000  Level Toronto Center
11:30PM 43.0333 -78.6833 90° East 500 575 35,000  Level Toronto Center
11:30PM 43.0308 -78.5894 92° East 495 570 35,000  Level Cleveland Center
11:31PM 43.0231 -78.3967 93° East 495 570 35,000  Level Cleveland Center
11:32PM 43.0153 -78.2067 93° East 495 570 35,000 -300 Level Cleveland Center
11:33PM 43.0067 -77.9997 93° East 495 570 34,400 -900 Descending Cleveland Center
11:34PM 42.9981 -77.8069 93° East 495 570 33,300 -1,020 Descending Cleveland Center
11:36PM 42.9811 -77.4731 94° East 491 565 31,500 -1,020 Descending Boston Center
11:37PM 42.9500 -77.3333 107° East 510 587 31,000 -1,080 Descending Toronto Center
11:38PM 42.9500 -77.1500 90° East 500 575 30,000 -1,020 Descending Toronto Center
11:39PM 42.9500 -76.9667 90° East 490 564 29,000 -540 Descending Toronto Center
11:40PM 42.9500 -76.7833 90° East 490 564 29,000  Level Toronto Center
11:40PM 42.9444 -76.7436 101° East 492 566 29,000  Level Boston Center
11:41PM 42.9339 -76.5214 94° East 492 566 29,000  Level Boston Center
11:42PM 42.9250 -76.3536 94° East 492 566 29,000  Level Boston Center
11:43PM 42.9122 -76.1769 96° East 481 554 29,000  Level Boston Center
11:44PM 42.9033 -76.0006 94° East 476 548 29,000 -540 Level Boston Center
11:45PM 42.8919 -75.8242 95° East 471 542 28,000 -1,800 Descending Boston Center
11:46PM 42.8806 -75.6450 95° East 466 536 25,500 -2,520 Descending Boston Center
11:47PM 42.8708 -75.4686 94° East 466 536 23,000 -2,520 Descending Boston Center
11:48PM 42.8583 -75.3011 96° East 461 531 20,500 -2,640 Descending Boston Center
11:49PM 42.8458 -75.1333 96° East 455 524 17,800 -2,640 Descending Boston Center
11:50PM 42.8350 -74.9658 95° East 445 512 15,300 -2,580 Descending Boston Center
11:51PM 42.8256 -74.8294 95° East 432 497 13,300 -2,460 Descending Boston Center
11:52PM 42.8122 -74.6619 96° East 414 476 11,000 -1,200 Descending Boston Center
11:53PM 42.8047 -74.5089 94° East 402 463 11,000 -180 Level Boston Center
11:54PM 42.8156 -74.3678 84° East 367 422 10,700 -1,200 Descending Boston Center
11:55PM 42.8383 -74.2494 75° East 307 353 8,600 -2,100 Descending Boston Center
11:55PM 42.8383 -74.2494 75° East 307 353 8,600 -2,220 Level Boston Center
11:56PM 42.8608 -74.1425 74° East 299 344 6,400 -2,220 Descending Boston Center
11:56PM 42.8608 -74.1425 74° East 299 344 6,400 -2,220 Level Boston Center
11:57PM 42.8831 -74.0353 74° East 280 322 4,200 -2,220 Descending Boston Center
11:57PM 42.8831 -74.0353 74° East 280 322 4,200 -1,020 Level Boston Center
11:58PM 42.9033 -73.9339 75° East 274 315 3,200 -1,020 Descending Boston Center
11:58PM 42.9033 -73.9339 75° East 274 315 3,200 -720 Level Boston Center
11:59PM 42.9064 -73.8433 87° East 247 284 2,500 -600 Descending Boston Center
12:00AM 42.8528 -73.8108 156° South 200 230 2,000 -540 Descending Boston Center